Atmospheric History
02/08/2018 18:21  to  2/9/2018 18:21
Change End Date:
To complete the export process:
1) Select all of the data below
2) Copy the data to the clipboard
3) Open a word processor such as Notepad
4) Paste the data into the word processor
5) Save the file

Date/Time (MST), AirTemp, RH, Dewpoint ,AvgWindSpeed, GustWindSpeed, WindDirection, PrecipType, PrecipIntensity, PrecipAccumulation, PrecipRate
02/09/2018 18:18, -9, 84, -12 ,3, 6, SW, None, None, ,  
02/09/2018 18:14, -9, 83, -13 ,4, 6, W, None, None, ,  
02/09/2018 18:04, -8, 84, -12 ,4, 5, W, None, None, ,  
02/09/2018 18:03, -8, 85, -11 ,4, 5, W, None, None, ,  
02/09/2018 17:54, -9, 83, -13 ,4, 6, W, None, None, ,  
02/09/2018 17:48, -8, 85, -11 ,5, 6, W, None, None, ,  
02/09/2018 17:44, -7, 86, -10 ,4, 6, NW, None, None, ,  
02/09/2018 17:34, -7, 86, -10 ,4, 6, W, None, None, ,  
02/09/2018 17:33, -7, 86, -10 ,4, 6, W, None, None, ,  
02/09/2018 17:23, -7, 86, -10 ,5, 6, W, None, None, ,  
02/09/2018 17:18, -6, 85, -9 ,5, 6, W, None, None, ,  
02/09/2018 17:13, -5, 85, -9 ,4, 6, W, None, None, ,  
02/09/2018 17:03, -5, 84, -8 ,6, 7, W, None, None, ,  
02/09/2018 17:03, -5, 84, -8 ,6, 7, W, None, None, ,  
02/09/2018 16:53, -4, 84, -8 ,5, 7, W, None, None, ,  
02/09/2018 16:48, -4, 84, -8 ,6, 9, W, None, None, ,  
02/09/2018 16:43, -4, 84, -7 ,6, 9, W, None, None, ,  
02/09/2018 16:33, -4, 82, -8 ,4, 6, W, None, None, ,  
02/09/2018 16:33, -4, 82, -8 ,4, 6, W, None, None, ,  
02/09/2018 16:23, -5, 82, -9 ,4, 6, W, None, None, ,  
02/09/2018 16:18, -5, 81, -9 ,4, 6, W, None, None, ,  
02/09/2018 16:13, -4, 80, -9 ,5, 6, W, None, None, ,  
02/09/2018 16:03, -3, 80, -8 ,6, 9, W, None, None, ,  
02/09/2018 15:53, -4, 81, -9 ,7, 9, W, None, None, ,  
02/09/2018 15:48, -4, 78, -9 ,7, 9, W, None, None, ,  
02/09/2018 15:43, -4, 79, -9 ,6, 7, W, None, None, ,  
02/09/2018 15:33, -4, 82, -9 ,5, 7, W, None, None, ,  
02/09/2018 15:33, -4, 82, -9 ,6, 7, W, None, None, ,  
02/09/2018 15:23, -4, 82, -8 ,6, 9, W, None, None, ,  
02/09/2018 15:18, -4, 82, -8 ,7, 9, W, None, None, ,  
02/09/2018 15:13, -4, 83, -8 ,7, 9, NW, None, None, ,  
02/09/2018 15:03, -4, 81, -9 ,8, 9, NW, None, None, ,  
02/09/2018 15:03, -4, 81, -9 ,7, 9, NW, None, None, ,  
02/09/2018 14:53, -3, 78, -8 ,7, 9, W, None, None, ,  
02/09/2018 14:48, -3, 77, -8 ,7, 9, W, None, None, ,  
02/09/2018 14:43, -3, 79, -8 ,6, 9, W, None, None, ,  
02/09/2018 14:33, -3, 77, -8 ,7, 9, W, None, None, ,  
02/09/2018 14:33, -3, 77, -8 ,7, 9, W, None, None, ,  
02/09/2018 14:22, -2, 77, -8 ,6, 9, NW, None, None, ,  
02/09/2018 14:18, -2, 77, -8 ,7, 9, W, None, None, ,  
02/09/2018 14:12, -2, 76, -8 ,7, 9, W, None, None, ,  
02/09/2018 14:03, -2, 73, -8 ,7, 9, W, None, None, ,  
02/09/2018 14:02, -2, 73, -8 ,7, 9, W, None, None, ,  
02/09/2018 13:52, -1, 74, -7 ,6, 8, NW, None, None, ,  
02/09/2018 13:48, -1, 73, -8 ,6, 8, NW, Yes, , ,  
02/09/2018 13:42, -1, 71, -8 ,6, 9, NW, Yes, , ,  
02/09/2018 13:33, 0, 71, -7 ,6, 7, NW, None, None, ,  
02/09/2018 13:32, 0, 71, -7 ,6, 7, NW, None, None, ,  
02/09/2018 13:22, 0, 71, -7 ,5, 7, W, None, None, ,  
02/09/2018 13:18, 0, 71, -8 ,5, 7, W, None, None, ,  
02/09/2018 13:12, -1, 72, -8 ,5, 6, W, Yes, , ,  
02/09/2018 13:03, -3, 74, -9 ,4, 6, W, None, None, ,  
02/09/2018 13:02, -2, 73, -9 ,4, 6, W, None, None, ,  
02/09/2018 12:52, -1, 74, -7 ,4, 6, W, None, None, ,  
02/09/2018 12:48, -1, 74, -8 ,4, 6, W, Yes, , ,  
02/09/2018 12:42, -2, 75, -8 ,5, 7, NW, None, None, ,  
02/09/2018 12:33, -3, 77, -8 ,6, 7, W, Yes, , ,  
02/09/2018 12:32, -3, 77, -8 ,6, 7, W, None, None, ,  
02/09/2018 12:22, -2, 76, -7 ,4, 6, NW, Yes, , ,  
02/09/2018 12:18, -2, 77, -7 ,4, 6, NW, None, None, ,  
02/09/2018 12:12, -3, 78, -8 ,4, 7, NW, None, None, ,  
02/09/2018 12:03, -3, 79, -8 ,6, 8, N, None, None, ,  
02/09/2018 12:02, -3, 78, -8 ,6, 8, N, None, None, ,  
02/09/2018 11:52, -3, 78, -8 ,6, 7, N, None, None, ,  
02/09/2018 11:48, -3, 78, -8 ,6, 8, N, None, None, ,  
02/09/2018 11:42, -3, 77, -8 ,6, 9, N, None, None, ,  
02/09/2018 11:33, -2, 76, -8 ,7, 8, N, None, None, ,  
02/09/2018 11:31, -2, 75, -8 ,6, 7, N, None, None, ,  
02/09/2018 11:21, 0, 78, -5 ,2, 4, N, None, None, ,  
02/09/2018 11:18, 0, 80, -5 ,1, 4, N, Yes, , ,  
02/09/2018 11:11, -1, 81, -5 ,3, 5, NW, Yes, , ,  
02/09/2018 11:03, -2, 83, -6 ,4, 4, NW, Yes, , ,  
02/09/2018 11:01, -3, 82, -7 ,3, 6, N, None, None, ,  
02/09/2018 10:51, -3, 82, -7 ,4, 6, N, None, None, ,  
02/09/2018 10:48, -3, 82, -7 ,4, 6, N, None, None, ,  
02/09/2018 10:41, -2, 83, -6 ,4, 6, N, None, None, ,  
02/09/2018 10:33, -3, 82, -7 ,4, 6, N, None, None, ,  
02/09/2018 10:31, -3, 82, -7 ,4, 6, N, None, None, ,  
02/09/2018 10:21, -2, 82, -6 ,4, 6, N, None, None, ,  
02/09/2018 10:18, -1, 83, -5 ,2, 4, NW, None, None, ,  
02/09/2018 10:11, -1, 84, -5 ,1, 4, NW, Yes, , ,  
02/09/2018 10:03, -2, 84, -6 ,3, 4, NW, None, None, ,  
02/09/2018 10:01, -2, 84, -6 ,2, 4, NW, Yes, , ,  
02/09/2018 09:51, -2, 84, -6 ,1, 2, W, None, None, ,  
02/09/2018 09:48, -2, 85, -5 ,1, 2, NW, Yes, , ,  
02/09/2018 09:41, -3, 84, -7 ,2, 2, NW, None, None, ,  
02/09/2018 09:33, -4, 83, -8 ,1, 1, SW, Yes, , ,  
02/09/2018 09:31, -4, 83, -8 ,1, 1, SW, Yes, , ,  
02/09/2018 09:21, -4, 84, -7 ,0, 1, NE, Yes, , ,  
02/09/2018 09:18, -4, 83, -8 ,0, 1, N, Yes, , ,  
02/09/2018 09:11, -4, 83, -8 ,0, 1, E, Yes, , ,  
02/09/2018 09:03, -4, 84, -7 ,0, 0, NE, Yes, , ,  
02/09/2018 09:01, -4, 84, -7 ,0, 0, E, Yes, , ,  
02/09/2018 08:51, -5, 84, -9 ,0, 1, S, Yes, , ,  
02/09/2018 08:48, -5, 83, -9 ,0, 1, S, Yes, , ,  
02/09/2018 08:41, -6, 83, -10 ,1, 1, S, None, None, ,  
02/09/2018 08:33, -6, 83, -10 ,1, 4, E, Yes, , ,  
02/09/2018 08:30, -6, 83, -10 ,1, 4, E, Yes, , ,  
02/09/2018 08:20, -6, 83, -10 ,4, 5, NE, Yes, , ,  
02/09/2018 08:18, -7, 83, -10 ,4, 5, NE, Yes, , ,  
02/09/2018 08:10, -7, 83, -10 ,4, 5, E, Yes, , ,  
02/09/2018 08:03, -7, 83, -10 ,4, 5, NE, Yes, , ,  
02/09/2018 08:00, -7, 83, -10 ,4, 5, NE, Yes, , ,  
02/09/2018 07:50, -7, 83, -10 ,4, 6, NE, Yes, , ,  
02/09/2018 07:48, -7, 83, -10 ,6, 6, NE, Yes, , ,  
02/09/2018 07:40, -7, 83, -11 ,4, 4, NE, Yes, , ,  
02/09/2018 07:33, -7, 83, -11 ,2, 6, NE, Yes, , ,  
02/09/2018 07:30, -7, 83, -11 ,4, 6, NE, Yes, , ,  
02/09/2018 07:20, -7, 83, -11 ,4, 6, E, None, None, ,  
02/09/2018 07:18, -7, 83, -11 ,5, 6, E, None, None, ,  
02/09/2018 07:10, -7, 83, -11 ,6, 6, NE, None, None, ,  
02/09/2018 07:03, -7, 83, -11 ,4, 4, E, None, None, ,  
02/09/2018 07:00, -7, 83, -11 ,4, 4, E, Yes, , ,  
02/09/2018 06:50, -7, 83, -10 ,4, 5, E, Yes, , ,  
02/09/2018 06:48, -7, 83, -10 ,4, 5, E, Yes, , ,  
02/09/2018 06:40, -7, 83, -11 ,4, 4, NE, Yes, , ,  
02/09/2018 06:33, -7, 83, -11 ,3, 6, NE, Yes, , ,  
02/09/2018 06:30, -7, 83, -11 ,4, 6, NE, Yes, , ,  
02/09/2018 06:20, -7, 83, -11 ,7, 7, NE, Yes, , ,  
02/09/2018 06:18, -7, 83, -11 ,6, 7, NE, Yes, , ,  
02/09/2018 06:10, -7, 83, -11 ,4, 7, E, Yes, , ,  
02/09/2018 06:03, -7, 83, -11 ,6, 7, NE, Yes, , ,  
02/09/2018 06:00, -7, 83, -10 ,6, 7, NE, Yes, , ,  
02/09/2018 05:50, -7, 83, -10 ,6, 9, NE, Yes, , ,  
02/09/2018 05:48, -7, 83, -10 ,6, 9, NE, Yes, , ,  
02/09/2018 05:40, -7, 83, -10 ,7, 9, NE, None, None, ,  
02/09/2018 05:33, -7, 83, -10 ,7, 9, NE, Yes, , ,  
02/09/2018 05:29, -7, 83, -10 ,7, 9, NE, None, None, ,  
02/09/2018 05:19, -7, 83, -10 ,8, 9, NE, None, None, ,  
02/09/2018 05:18, -7, 83, -10 ,8, 9, NE, None, None, ,  
02/09/2018 05:09, -7, 83, -10 ,6, 9, NE, None, None, ,  
02/09/2018 05:03, -7, 83, -10 ,8, 9, NE, None, None, ,  
02/09/2018 04:59, -7, 83, -10 ,7, 9, NE, None, None, ,  
02/09/2018 04:49, -7, 83, -11 ,7, 9, NE, None, None, ,  
02/09/2018 04:48, -7, 83, -11 ,7, 9, NE, None, None, ,  
02/09/2018 04:39, -7, 83, -11 ,8, 9, NE, None, None, ,  
02/09/2018 04:33, -7, 83, -11 ,6, 8, NE, None, None, ,  
02/09/2018 04:29, -7, 83, -11 ,7, 8, NE, None, None, ,  
02/09/2018 04:19, -7, 83, -11 ,6, 7, NE, None, None, ,  
02/09/2018 04:18, -8, 83, -11 ,6, 7, NE, None, None, ,  
02/09/2018 04:09, -8, 83, -11 ,4, 6, NE, None, None, ,  
02/09/2018 04:03, -8, 83, -12 ,4, 6, NE, None, None, ,  
02/09/2018 03:59, -9, 82, -13 ,6, 6, NE, None, None, ,  
02/09/2018 03:49, -8, 83, -12 ,6, 9, NE, None, None, ,  
02/09/2018 03:48, -8, 83, -11 ,7, 9, NE, None, None, ,  
02/09/2018 03:39, -8, 83, -12 ,6, 7, NE, None, None, ,  
02/09/2018 03:33, -7, 84, -11 ,6, 6, E, None, None, ,  
02/09/2018 03:29, -8, 83, -12 ,4, 6, E, None, None, ,  
02/09/2018 03:19, -8, 83, -12 ,4, 9, E, None, None, ,  
02/09/2018 03:18, -8, 83, -12 ,4, 9, E, None, None, ,  
02/09/2018 03:09, -8, 83, -12 ,9, 9, E, None, None, ,  
02/09/2018 03:03, -8, 83, -12 ,7, 9, NE, None, None, ,  
02/09/2018 02:59, -7, 83, -11 ,9, 10, E, None, None, ,  
02/09/2018 02:49, -7, 83, -11 ,9, 10, NE, None, None, ,  
02/09/2018 02:48, -7, 83, -11 ,9, 10, NE, None, None, ,  
02/09/2018 02:39, -7, 83, -11 ,7, 7, NE, None, None, ,  
02/09/2018 02:33, -6, 84, -10 ,6, 7, NE, None, None, ,  
02/09/2018 02:28, -6, 84, -9 ,6, 7, NE, None, None, ,  
02/09/2018 02:18, -6, 84, -10 ,2, 6, E, None, None, ,  
02/09/2018 02:18, -6, 84, -10 ,2, 6, NE, None, None, ,  
02/09/2018 02:08, -6, 84, -10 ,6, 7, NE, None, None, ,  
02/09/2018 02:03, -6, 84, -9 ,5, 7, NE, None, None, ,  
02/09/2018 01:58, -6, 84, -9 ,6, 7, NE, None, None, ,  
02/09/2018 01:48, -6, 85, -9 ,7, 10, NE, None, None, ,  
02/09/2018 01:48, -6, 84, -9 ,7, 10, NE, None, None, ,  
02/09/2018 01:38, -5, 85, -9 ,9, 12, NE, None, None, ,  
02/09/2018 01:33, -6, 84, -9 ,9, 12, NE, None, None, ,  
02/09/2018 01:28, -5, 85, -9 ,10, 12, NE, None, None, ,  
02/09/2018 01:18, -5, 85, -8 ,8, 11, NE, None, None, ,  
02/09/2018 01:18, -5, 85, -8 ,8, 11, NE, None, None, ,  
02/09/2018 01:08, -5, 85, -8 ,8, 12, NE, None, None, ,  
02/09/2018 01:03, -4, 85, -8 ,9, 12, NE, None, None, ,  
02/09/2018 00:58, -4, 85, -7 ,10, 12, NE, None, None, ,  
02/09/2018 00:48, -4, 86, -7 ,9, 11, NE, None, None, ,  
02/09/2018 00:48, -4, 86, -7 ,9, 11, NE, None, None, ,  
02/09/2018 00:38, -4, 86, -7 ,7, 10, NE, None, None, ,  
02/09/2018 00:33, -4, 86, -7 ,7, 9, NE, None, None, ,  
02/09/2018 00:28, -4, 86, -7 ,7, 9, NE, None, None, ,  
02/09/2018 00:18, -3, 87, -6 ,4, 6, NE, None, None, ,  
02/09/2018 00:18, -3, 87, -6 ,4, 6, NE, None, None, ,  
02/09/2018 00:08, -3, 86, -7 ,3, 7, NE, None, None, ,  
02/09/2018 00:03, -3, 87, -6 ,4, 7, NE, None, None, ,  
02/08/2018 23:58, -3, 87, -6 ,4, 7, NE, None, None, ,  
02/08/2018 23:48, -3, 87, -6 ,5, 8, NE, None, None, ,  
02/08/2018 23:48, -3, 87, -6 ,5, 8, NE, Yes, , ,  
02/08/2018 23:38, -3, 87, -6 ,4, 7, NE, None, None, ,  
02/08/2018 23:33, -3, 87, -6 ,4, 8, N, None, None, ,  
02/08/2018 23:27, -3, 87, -6 ,6, 9, N, None, None, ,  
02/08/2018 23:18, -3, 87, -5 ,6, 7, NE, None, None, ,  
02/08/2018 23:17, -3, 88, -5 ,6, 7, NE, None, None, ,  
02/08/2018 23:07, -3, 86, -6 ,5, 6, N, None, None, ,  
02/08/2018 23:03, -3, 86, -6 ,6, 6, N, None, None, ,  
02/08/2018 22:57, -3, 87, -5 ,4, 6, NE, None, None, ,  
02/08/2018 22:48, -2, 85, -6 ,4, 6, N, None, None, ,  
02/08/2018 22:47, -2, 85, -6 ,4, 6, N, None, None, ,  
02/08/2018 22:37, -2, 84, -5 ,4, 7, N, None, None, ,  
02/08/2018 22:33, -2, 85, -5 ,5, 7, N, None, None, ,  
02/08/2018 22:27, -2, 85, -5 ,4, 7, NE, Yes, , ,  
02/08/2018 22:18, -1, 85, -5 ,4, 7, N, None, None, ,  
02/08/2018 22:17, -1, 85, -5 ,6, 7, N, None, None, ,  
02/08/2018 22:07, -1, 84, -5 ,6, 7, NE, None, None, ,  
02/08/2018 22:03, -1, 84, -4 ,4, 10, NE, None, None, ,  
02/08/2018 21:57, -1, 84, -4 ,7, 10, NE, None, None, ,  
02/08/2018 21:48, -1, 84, -4 ,7, 10, NE, None, None, ,  
02/08/2018 21:47, -1, 84, -4 ,7, 10, NE, None, None, ,  
02/08/2018 21:37, 0, 84, -4 ,7, 9, N, None, None, ,  
02/08/2018 21:33, 0, 85, -4 ,6, 10, N, Yes, , ,  
02/08/2018 21:27, 0, 85, -4 ,9, 11, NE, None, None, ,  
02/08/2018 21:18, 0, 85, -4 ,9, 12, NE, None, None, ,  
02/08/2018 21:17, 0, 85, -4 ,9, 12, NE, None, None, ,  
02/08/2018 21:07, 0, 85, -4 ,9, 13, NE, None, None, ,  
02/08/2018 21:03, 0, 84, -4 ,9, 13, NE, None, None, ,  
02/08/2018 20:57, 0, 84, -4 ,10, 15, NE, None, None, ,  
02/08/2018 20:48, 0, 85, -4 ,12, 14, NE, None, None, ,  
02/08/2018 20:47, 0, 85, -3 ,9, 13, NE, Yes, , ,  
02/08/2018 20:37, 0, 86, -3 ,10, 12, N, Yes, , ,  
02/08/2018 20:33, 0, 86, -3 ,9, 12, NE, Yes, , ,  
02/08/2018 20:26, 1, 86, -3 ,10, 13, N, None, None, ,  
02/08/2018 20:18, 1, 86, -3 ,10, 13, NE, Yes, , ,  
02/08/2018 20:16, 1, 86, -3 ,8, 12, NE, Yes, , ,  
02/08/2018 20:06, 1, 85, -3 ,9, 13, NE, None, None, ,  
02/08/2018 20:03, 1, 86, -3 ,7, 12, NE, None, None, ,  
02/08/2018 19:56, 1, 85, -3 ,10, 13, NE, None, None, ,  
02/08/2018 19:48, 1, 86, -2 ,10, 13, NE, None, None, ,  
02/08/2018 19:46, 1, 86, -2 ,7, 10, N, None, None, ,  
02/08/2018 19:36, 1, 86, -2 ,7, 13, NE, None, None, ,  
02/08/2018 19:33, 1, 86, -2 ,7, 14, NE, None, None, ,  
02/08/2018 19:26, 1, 86, -2 ,9, 15, NE, None, None, ,  
02/08/2018 19:18, 1, 86, -2 ,12, 16, NE, None, None, ,  
02/08/2018 19:16, 1, 86, -2 ,11, 16, NE, Yes, , ,  
02/08/2018 19:06, 1, 85, -2 ,11, 14, NE, None, None, ,  
02/08/2018 19:03, 1, 85, -2 ,11, 16, NE, None, None, ,  
02/08/2018 18:56, 1, 85, -2 ,12, 16, NE, None, None, ,  
02/08/2018 18:48, 1, 85, -2 ,10, 12, NE, None, None, ,  
02/08/2018 18:46, 1, 85, -2 ,10, 12, NE, None, None, ,  
02/08/2018 18:36, 1, 85, -2 ,9, 16, NE, None, None, ,  
02/08/2018 18:33, 1, 85, -2 ,12, 17, NE, None, None, ,  
02/08/2018 18:26, 2, 86, -2 ,11, 17, NE, None, None, ,  
Change End Date:

Copyright © 1998-2015 Vaisala, Inc.
All Rights Reserved
Send comments about the data to:
SCAN Web ® is a registered trademark of Vaisala, Inc.
SCAN Web Version 6.0